Latest Weather Observations for Ballina

IDN60801

Issued at 4:52 pm EDT Thursday 12 December 2019 (issued every 10 minutes, with the page automatically refreshed every 10 minutes)

About weather observations | Map of weather stations | Latest weather observations for NSW | Other Formats
Station Details ID: 058198 Name: BALLINA AIRPORT AWS Lat: -28.84 Lon: 153.56 Height: 1.3 m
Data from the previous 72 hours. | See also: Recent months at Ballina
Date/Time
EDT
Temp
°C
App
Temp
°C
Dew
Point
°C
Rel
Hum
%
Delta-T
°C
Wind Press
QNH
hPa
Press
MSL
hPa
Rain since
9am
mm
Dir  Spd
km/h
Gust
km/h
Spd
kts
Gust
kts
12/04:30pm 26.0 27.2 22.5 81 2.4 SE 20 30 11 16 1009.6 1009.6 0.0
12/04:00pm 26.4 27.8 22.9 81 2.4 SSE 20 28 11 15 1009.9 1009.9 0.0
12/03:51pm 26.9 28.5 23.2 80 2.5 SSE 20 28 11 15 1009.9 1009.9 0.0
12/03:30pm 27.3 28.7 22.9 77 3.0 SSE 20 26 11 14 1010.0 1010.0 0.0
12/03:00pm 26.6 27.1 22.7 79 2.6 SSE 24 32 13 17 1010.1 1010.1 0.0
12/02:30pm 26.4 26.6 22.0 77 2.9 SSE 24 32 13 17 1010.4 1010.4 0.0
12/02:00pm 26.8 27.2 22.4 77 3.0 SSE 24 28 13 15 1010.2 1010.2 0.0
12/01:30pm 26.4 27.6 22.5 79 2.6 SSE 20 26 11 14 1010.5 1010.5 0.0
12/01:00pm 26.4 26.8 21.8 76 3.1 SE 22 30 12 16 1010.8 1010.8 0.0
12/12:30pm 26.6 26.1 21.4 73 3.5 SSE 26 32 14 17 1011.2 1011.2 0.0
12/12:00pm 26.7 26.3 21.0 71 3.8 S 24 35 13 19 1011.4 1011.4 0.0
12/11:30am 26.4 25.6 21.6 75 3.2 SSE 28 33 15 18 1011.6 1011.6 0.0
12/11:00am 26.4 26.3 21.4 74 3.3 S 24 30 13 16 1011.7 1011.7 0.0
12/10:30am 26.0 26.4 21.7 77 2.9 S 22 30 12 16 1011.7 1011.7 0.0
12/10:00am 26.5 26.7 22.1 77 3.0 S 24 33 13 18 1011.6 1011.6 0.0
12/09:30am 27.4 28.5 20.5 66 4.5 SSW 15 19 8 10 1011.4 1011.4 0.0
12/09:00am 27.7 28.7 17.8 54 6.3 NNW 9 13 5 7 1011.4 1011.4 1.2
12/08:30am 26.1 27.6 18.8 64 4.7 NNW 9 13 5 7 1011.1 1011.1 1.2
12/08:00am 24.6 25.8 19.0 71 3.6 NNW 11 15 6 8 1010.9 1010.9 1.2
12/07:30am 22.9 23.5 18.7 77 2.6 NNW 13 19 7 10 1010.7 1010.7 1.2
12/07:00am 20.6 23.0 18.7 89 1.2 N 4 6 2 3 1010.5 1010.5 1.2
12/06:30am 19.4 21.2 18.4 94 0.6 WNW 6 7 3 4 1010.0 1010.0 1.2
12/06:00am 19.3 21.0 18.6 96 0.4 NNE 7 11 4 6 1009.8 1009.8 1.2
12/05:30am 19.6 21.3 18.4 93 0.7 NW 7 9 4 5 1009.4 1009.4 1.2
12/05:00am 19.4 22.3 18.1 92 0.8 CALM 0 6 0 3 1009.3 1009.3 1.2
12/04:30am 20.1 22.2 18.1 88 1.2 NNW 4 9 2 5 1008.7 1008.7 1.2
12/04:00am 21.2 21.9 18.8 86 1.5 NW 13 17 7 9 1008.6 1008.6 1.2
12/03:30am 21.5 22.9 19.6 89 1.2 NW 11 15 6 8 1008.1 1008.1 1.2
12/03:00am 21.7 22.9 19.1 85 1.6 WSW 11 15 6 8 1008.0 1008.0 1.2
12/02:30am 22.4 22.6 18.6 79 2.4 SSW 15 20 8 11 1008.8 1008.8 1.2
12/02:00am 23.2 22.6 18.5 75 3.0 S 19 28 10 15 1008.7 1008.7 1.2
12/01:32am 23.9 21.3 17.9 69 3.8 SE 28 48 15 26 1008.0 1008.0 1.2
12/01:30am 23.8 21.8 17.5 68 3.9 SE 24 43 13 23 1007.8 1007.8 1.2
12/01:00am 26.2 22.7 15.6 52 6.5 W 28 39 15 21 1007.7 1007.7 1.2
12/12:30am 23.7 19.7 17.7 69 3.7 NNW 35 48 19 26 1008.3 1008.3 1.2
12/12:24am 22.8 18.8 17.7 73 3.2 NW 35 46 19 25 1009.8 1009.8 1.2
12/12:00am 21.7 16.9 18.5 82 2.0 NW 41 54 22 29 1011.8 1011.8 1.2
 
Date/Time
EDT
Temp
°C
App
Temp
°C
Dew
Point
°C
Rel
Hum
%
Delta-T
°C
Wind Press
QNH
hPa
Press
MSL
hPa
Rain since
9am
mm
Dir  Spd
km/h
Gust
km/h
Spd
kts
Gust
kts
11/11:30pm 21.8 19.4 19.9 89 1.2 NW 32 57 17 31 1013.1 1013.1 0.8
11/11:28pm 21.9 19.8 19.8 88 1.3 NW 30 48 16 26 1013.4 1013.4 0.6
11/11:00pm 23.0 22.9 20.7 87 1.5 WNW 22 32 12 17 1015.0 1015.0 0.4
11/10:30pm 23.8 25.6 22.6 93 0.8 WNW 17 20 9 11 1015.4 1015.4 0.0
11/10:25pm 23.9 26.3 22.9 94 0.7 W 15 20 8 11 1015.4 1015.4 0.0
11/10:00pm 24.3 27.7 22.7 91 1.1 W 9 15 5 8 1015.3 1015.3 0.0
11/09:34pm 24.3 27.3 22.6 90 1.1 SW 11 15 6 8 1014.9 1014.9 0.0
11/09:30pm 24.7 28.3 23.1 91 1.1 SW 9 13 5 7 1014.9 1014.9 0.0
11/09:00pm 24.3 27.7 22.7 91 1.1 E 9 13 5 7 1014.2 1014.2 0.0
11/08:30pm 24.3 27.3 22.6 90 1.1 ESE 11 15 6 8 1013.3 1013.3 0.0
11/08:00pm 25.0 28.1 22.9 88 1.4 NE 11 15 6 8 1012.5 1012.5 0.0
11/07:30pm 25.2 27.8 22.7 86 1.7 NNE 13 22 7 12 1012.1 1012.1 0.0
11/07:00pm 25.4 27.0 22.9 86 1.7 NNE 19 32 10 17 1011.0 1011.0 0.0
11/06:30pm 25.4 26.5 23.1 87 1.6 NNE 22 30 12 16 1010.3 1010.3 0.0
11/06:00pm 25.7 26.1 23.2 86 1.7 NNE 26 37 14 20 1009.5 1009.5 0.0
11/05:46pm 25.8 25.5 23.3 86 1.7 NE 30 41 16 22 1009.2 1009.2 0.0
11/05:30pm 26.2 26.1 23.5 85 1.8 NNE 30 44 16 24 1009.1 1009.1 0.0
11/05:00pm 26.9 26.7 23.4 81 2.4 NE 30 46 16 25 1009.3 1009.3 0.0
11/04:30pm 27.2 26.1 23.4 80 2.6 NE 35 44 19 24 1009.3 1009.3 0.0
11/04:00pm 27.4 27.0 23.0 77 3.0 NE 30 44 16 24 1010.0 1010.0 0.0
11/03:30pm 27.1 26.7 23.1 79 2.7 NE 30 39 16 21 1010.5 1010.5 0.0
11/03:00pm 28.3 29.0 23.0 73 3.6 NE 24 32 13 17 1010.9 1010.9 0.0
11/02:30pm 28.8 30.2 22.8 70 4.1 NE 20 32 11 17 1011.3 1011.3 0.0
11/02:00pm 29.0 30.9 22.0 66 4.7 E 15 22 8 12 1011.5 1011.5 0.0
11/01:30pm 28.4 29.4 20.2 61 5.4 ESE 15 20 8 11 1012.0 1012.0 0.0
11/01:00pm 28.4 29.5 20.4 62 5.3 SE 15 20 8 11 1012.3 1012.3 0.0
11/12:30pm 27.3 28.1 20.6 67 4.4 SE 17 22 9 12 1012.6 1012.6 0.0
11/12:00pm 26.9 26.8 19.5 64 4.8 SSE 19 28 10 15 1012.9 1012.9 0.0
11/11:30am 28.5 29.6 21.3 65 4.8 SE 17 24 9 13 1012.8 1012.8 0.0
11/11:00am 28.2 28.3 21.2 65 4.7 SSE 22 28 12 15 1012.8 1012.8 0.0
11/10:30am 29.2 31.3 18.9 53 6.7 SSE 6 9 3 5 1012.9 1012.9 0.0
11/10:00am 28.0 29.8 19.5 60 5.5 W 9 17 5 9 1013.0 1013.0 0.0
11/09:30am 27.2 27.8 20.3 66 4.5 N 17 24 9 13 1011.9 1011.9 0.0
11/09:00am 26.0 29.0 20.8 73 3.4 W 6 11 3 6 1012.8 1012.8 0.2
11/08:30am 25.6 27.3 21.7 79 2.6 WNW 15 22 8 12 1013.2 1013.2 0.2
11/08:00am 24.8 26.5 21.7 83 2.1 NNE 15 20 8 11 1012.8 1012.8 0.2
11/07:30am 24.0 26.2 21.9 88 1.4 NE 13 15 7 8 1013.2 1013.2 0.2
11/07:00am 23.0 25.3 21.3 90 1.1 NE 11 17 6 9 1013.2 1013.2 0.2
11/06:30am 22.4 25.2 20.5 89 1.2 NW 6 9 3 5 1013.2 1013.2 0.2
11/06:00am 22.2 24.9 20.7 91 1.0 WNW 7 9 4 5 1012.9 1012.9 0.2
11/05:30am 23.5 26.7 21.2 87 1.5 SW 6 11 3 6 1012.8 1012.8 0.2
11/05:00am 24.0 26.0 21.5 86 1.7 NNE 13 19 7 10 1011.2 1011.2 0.2
11/04:30am 24.1 26.0 21.4 85 1.8 NNE 13 20 7 11 1010.7 1010.7 0.2
11/04:00am 24.2 25.3 21.3 84 1.9 N 17 24 9 13 1010.5 1010.5 0.2
11/03:30am 24.2 24.2 20.9 82 2.2 N 22 32 12 17 1010.3 1010.3 0.2
11/03:00am 24.4 24.9 20.9 81 2.3 NNW 19 28 10 15 1010.3 1010.3 0.2
11/02:30am 24.3 24.4 20.4 79 2.5 NNE 20 26 11 14 1010.0 1010.0 0.2
11/02:00am 23.9 24.1 19.4 76 2.9 ENE 17 22 9 12 1010.5 1010.5 0.2
11/01:30am 24.0 24.2 19.3 75 3.0 NE 17 22 9 12 1010.8 1010.8 0.2
11/01:00am 23.5 23.5 19.0 76 2.9 E 17 26 9 14 1010.8 1010.8 0.2
11/12:30am 24.1 24.1 19.0 73 3.2 WSW 17 28 9 15 1011.4 1011.4 0.2
11/12:00am 23.6 22.9 20.3 82 2.1 N 24 37 13 20 1012.8 1012.8 0.2
 
Date/Time
EDT
Temp
°C
App
Temp
°C
Dew
Point
°C
Rel
Hum
%
Delta-T
°C
Wind Press
QNH
hPa
Press
MSL
hPa
Rain since
9am
mm
Dir  Spd
km/h
Gust
km/h
Spd
kts
Gust
kts
10/11:30pm 23.5 25.4 21.4 88 1.4 NNW 13 15 7 8 1014.7 1014.7 0.0
10/11:00pm 23.4 27.0 22.0 92 0.9 NNW 6 7 3 4 1015.1 1015.1 0.0
10/10:30pm 24.1 28.8 22.0 88 1.4 CALM 0 0 0 0 1015.6 1015.6 0.0
10/10:00pm 25.1 27.7 21.2 79 2.6 NNW 9 17 5 9 1014.7 1014.7 0.0
10/09:30pm 25.4 25.6 21.3 78 2.7 N 22 37 12 20 1013.6 1013.6 0.0
10/09:00pm 25.4 24.6 20.9 76 3.0 N 26 39 14 21 1012.5 1012.5 0.0
10/08:30pm 25.3 23.9 20.5 75 3.1 NNE 28 39 15 21 1012.2 1012.2 0.0
10/08:00pm 25.5 24.2 20.7 75 3.1 NNE 28 39 15 21 1012.0 1012.0 0.0
10/07:30pm 25.7 24.9 20.9 75 3.2 NNE 26 39 14 21 1012.0 1012.0 0.0
10/07:00pm 25.9 24.9 21.3 76 3.0 NNE 28 41 15 22 1011.7 1011.7 0.0
10/06:42pm 26.0 25.1 21.4 76 3.1 NNE 28 46 15 25 1011.1 1011.1 0.0
10/06:30pm 26.2 25.3 21.4 75 3.2 NNE 28 39 15 21 1011.1 1011.1 0.0
10/06:00pm 26.4 26.0 21.6 75 3.2 NNE 26 43 14 23 1011.2 1011.2 0.0
10/05:30pm 27.2 26.4 21.7 72 3.7 NNE 28 41 15 22 1010.9 1010.9 0.0
10/05:00pm 27.9 26.1 21.2 67 4.5 NNE 32 44 17 24 1010.9 1010.9 0.0
10/04:30pm 28.4 27.0 21.2 65 4.8 NNE 30 41 16 22 1011.2 1011.2 0.0
10/04:00pm 29.3 27.3 21.8 64 5.0 NNE 35 50 19 27 1011.5 1011.5 0.0
10/03:41pm 29.7 29.1 21.9 63 5.3 NNE 28 46 15 25 1011.9 1011.9 0.0
10/03:30pm 29.0 28.8 22.7 69 4.3 NE 28 43 15 23 1012.1 1012.1 0.0
10/03:00pm 28.5 27.0 22.7 71 3.9 NE 35 44 19 24 1012.5 1012.5 0.0
10/02:30pm 29.4 28.1 23.1 69 4.3 NE 35 43 19 23 1012.9 1012.9 0.0
10/02:00pm 29.5 28.7 23.4 69 4.2 NE 33 43 18 23 1013.4 1013.4 0.0
10/01:30pm 28.7 27.4 23.1 71 3.8 NE 35 44 19 24 1013.9 1013.9 0.0
10/01:00pm 28.9 28.1 23.3 72 3.8 NE 33 41 18 22 1014.3 1014.3 0.0
10/12:30pm 28.9 28.1 23.3 72 3.8 NE 33 44 18 24 1014.8 1014.8 0.0
10/12:00pm 28.9 28.1 23.1 71 4.0 NE 32 41 17 22 1015.3 1015.3 0.0
10/11:30am 28.6 29.2 22.8 71 3.9 NE 24 32 13 17 1016.0 1016.0 0.0
10/11:00am 29.4 30.7 23.4 70 4.1 NE 22 28 12 15 1016.6 1016.6 0.0
10/10:30am 28.8 30.8 22.3 68 4.4 NNE 15 22 8 12 1016.6 1016.6 0.0
10/10:00am 28.1 29.8 20.9 65 4.8 NW 13 19 7 10 1016.9 1016.9 0.0
10/09:30am 27.6 29.0 20.4 65 4.7 NNW 13 19 7 10 1017.1 1017.1 0.0
10/09:00am 26.9 29.2 20.7 69 4.1 NW 9 13 5 7 1017.3 1017.3 2.6
10/08:30am 26.0 28.8 22.3 80 2.5 NNW 11 15 6 8 1017.6 1017.6 2.6
10/08:00am 24.5 27.4 22.4 88 1.4 NNW 11 17 6 9 1017.5 1017.5 2.6
10/07:30am 23.5 27.1 22.3 93 0.8 N 7 13 4 7 1017.5 1017.5 2.6
10/07:00am 22.7 26.3 22.0 96 0.5 N 6 9 3 5 1017.3 1017.3 2.6
10/06:30am 22.3 25.8 21.8 97 0.3 N 6 7 3 4 1017.4 1017.4 2.6
10/06:00am 22.1 25.3 21.6 97 0.3 NNE 7 9 4 5 1017.3 1017.3 2.6
10/05:30am 22.2 25.1 21.7 97 0.3 NNE 9 15 5 8 1017.1 1017.1 2.6
10/05:00am 22.3 25.8 21.8 97 0.3 N 6 9 3 5 1017.1 1017.1 2.6
10/04:30am 22.6 26.1 22.1 97 0.3 NNE 7 9 4 5 1017.1 1017.1 2.6
10/04:00am 23.0 26.7 22.3 96 0.5 NNE 6 9 3 5 1017.1 1017.1 2.6
10/03:30am 23.1 26.7 22.3 95 0.5 NNE 7 11 4 6 1017.1 1017.1 2.6
10/03:00am 23.3 26.5 22.3 94 0.7 NNE 9 13 5 7 1017.2 1017.2 2.6
10/02:41am 23.6 26.5 22.4 93 0.8 NNE 11 15 6 8 1017.3 1017.3 2.6
10/02:30am 23.7 26.2 22.5 93 0.8 NNE 13 19 7 10 1017.4 1017.4 2.6
10/02:06am 23.9 26.5 22.7 93 0.8 NNE 13 19 7 10 1017.7 1017.7 2.6
10/02:04am 23.9 26.5 22.7 93 0.8 NNE 13 19 7 10 1017.7 1017.7 2.6
10/02:00am 23.9 26.2 22.7 93 0.8 NNE 15 20 8 11 1017.8 1017.8 2.6
10/01:30am 23.9 26.2 22.7 93 0.8 NNE 15 24 8 13 1018.1 1018.1 2.6
10/01:20am 23.9 26.2 22.7 93 0.8 NNE 15 20 8 11 1018.2 1018.2 2.6
10/01:10am 23.8 26.0 22.6 93 0.8 NE 15 20 8 11 1018.2 1018.2 2.6
10/01:00am 23.8 25.6 22.6 93 0.8 NNE 17 20 9 11 1018.3 1018.3 2.6
10/12:39am 23.9 25.7 22.5 92 0.9 NNE 17 22 9 12 1018.6 1018.6 2.6
10/12:30am 23.9 26.0 22.5 92 0.9 NNE 15 22 8 12 1018.7 1018.7 2.6
10/12:23am 23.8 25.9 22.4 92 0.9 NE 15 20 8 11 1018.8 1018.8 2.6
10/12:00am 23.8 25.8 22.2 91 1.1 NNE 15 20 8 11 1019.1 1019.1 2.6
 
Date/Time
EDT
Temp
°C
App
Temp
°C
Dew
Point
°C
Rel
Hum
%
Delta-T
°C
Wind Press
QNH
hPa
Press
MSL
hPa
Rain since
9am
mm
Dir  Spd
km/h
Gust
km/h
Spd
kts
Gust
kts
09/11:56pm 23.8 26.2 22.2 91 1.1 NNE 13 20 7 11 1019.1 1019.1 2.6
09/11:30pm 23.9 25.6 22.3 91 1.1 NNE 17 22 9 12 1019.2 1019.2 2.6
09/11:18pm 24.0 25.7 22.4 91 1.1 NNE 17 22 9 12 1019.4 1019.4 2.6
09/11:05pm 24.0 25.7 22.4 91 1.1 NNE 17 26 9 14 1019.5 1019.5 2.6
09/11:00pm 24.0 25.7 22.4 91 1.1 NNE 17 22 9 12 1019.5 1019.5 2.6
09/10:51pm 24.0 25.7 22.3 90 1.1 NNE 17 24 9 13 1019.7 1019.7 2.6
09/10:45pm 24.0 25.7 22.3 90 1.1 NNE 17 24 9 13 1019.7 1019.7 2.6
09/10:30pm 23.9 25.6 22.3 91 1.1 NNE 17 24 9 13 1019.7 1019.7 2.6
09/10:26pm 23.9 25.6 22.3 91 1.1 NNE 17 26 9 14 1019.7 1019.7 2.6
09/10:00pm 23.9 25.5 22.2 90 1.1 NE 17 26 9 14 1019.6 1019.6 2.6
09/09:43pm 24.0 25.6 22.1 89 1.3 NNE 17 24 9 13 1019.7 1019.7 2.6
09/09:30pm 24.1 25.7 22.2 89 1.3 NE 17 22 9 12 1019.6 1019.6 2.6
09/09:00pm 24.1 25.3 22.2 89 1.3 NE 19 24 10 13 1019.3 1019.3 2.6
09/08:30pm 23.8 25.2 21.9 89 1.3 NE 17 28 9 15 1019.3 1019.3 2.6
09/08:22pm 23.8 25.2 21.9 89 1.3 NE 17 28 9 15 1019.3 1019.3 2.6
09/08:00pm 24.0 25.3 21.7 87 1.5 NE 17 22 9 12 1019.2 1019.2 2.6
09/07:30pm 24.0 25.0 21.7 87 1.5 NE 19 30 10 16 1018.8 1018.8 2.6
09/07:00pm 24.2 25.2 21.7 86 1.7 NE 19 26 10 14 1018.6 1018.6 2.6
09/06:30pm 24.5 25.2 21.6 84 1.9 NE 20 28 11 15 1018.6 1018.6 2.6
09/06:00pm 24.7 24.2 21.4 82 2.2 NE 26 33 14 18 1018.5 1018.5 2.6
09/05:38pm 24.9 24.7 21.2 80 2.4 NE 24 32 13 17 1018.6 1018.6 2.6
09/05:30pm 25.1 25.1 21.6 81 2.3 NE 24 35 13 19 1018.8 1018.8 2.6
09/05:25pm 25.3 25.3 21.6 80 2.5 ENE 24 33 13 18 1018.8 1018.8 2.6
09/05:00pm 25.4 24.9 21.5 79 2.6 ENE 26 37 14 20 1018.9 1018.9 2.6

Other formats

Comma delimited format used in spreadsheet applications
http://www.bom.gov.au/fwo/IDN60801/IDN60801.94596.axf

JavaScript Object Notation format (JSON) in row-major order
http://www.bom.gov.au/fwo/IDN60801/IDN60801.94596.json

Data quality

Most of these data are generated automatically and are frequently updated. Quality checks on data are not normally performed. It is possible for incorrect values to appear. Refer to information at About Latest Weather Observations and please check the disclaimer before using these data.